createdAt,value
2023-03-08T00:01:26.692Z,96538.13
2023-03-08T00:03:56.285Z,96533.97
2023-03-08T00:06:27.439Z,96540.59
2023-03-08T00:08:56.947Z,96534.75
2023-03-08T00:11:25.991Z,96526.38
2023-03-08T00:13:55.468Z,96538.88
2023-03-08T00:16:24.606Z,96534.53
2023-03-08T00:18:53.009Z,96526.97
2023-03-08T00:21:21.322Z,96532.13
2023-03-08T00:23:54.496Z,96535.50
2023-03-08T00:26:23.206Z,96544.84
2023-03-08T00:28:52.639Z,96539.47
2023-03-08T00:31:21.801Z,96537.75
2023-03-08T00:33:54.384Z,96532.81
2023-03-08T00:36:22.858Z,96525.25
2023-03-08T00:38:52.726Z,96526.91
2023-03-08T00:41:21.166Z,96537.00
2023-03-08T00:43:49.798Z,96541.09
2023-03-08T00:46:18.107Z,96536.06
2023-03-08T00:48:46.524Z,96534.47
2023-03-08T00:51:17.666Z,96540.50
2023-03-08T00:53:46.621Z,96540.59
2023-03-08T00:56:16.589Z,96551.28
2023-03-08T00:58:45.347Z,96548.72
2023-03-08T01:01:17.278Z,96547.84
2023-03-08T01:03:46.059Z,96550.22
2023-03-08T01:06:16.060Z,96538.41
2023-03-08T01:08:44.970Z,96537.75
2023-03-08T01:11:20.525Z,96540.38
2023-03-08T01:13:49.837Z,96541.09
2023-03-08T01:16:20.328Z,96539.19
2023-03-08T01:18:49.272Z,96525.09
2023-03-08T01:21:17.822Z,96537.56
2023-03-08T01:23:46.301Z,96538.50
2023-03-08T01:26:15.816Z,96539.31
2023-03-08T01:28:46.439Z,96547.00
2023-03-08T01:31:16.980Z,96541.03
2023-03-08T01:33:46.591Z,96550.16
2023-03-08T01:36:17.042Z,96555.25
2023-03-08T01:38:46.161Z,96553.69
2023-03-08T01:41:17.926Z,96549.38
2023-03-08T01:43:47.804Z,96551.09
2023-03-08T01:46:24.057Z,96550.31
2023-03-08T01:48:57.665Z,96540.88
2023-03-08T01:51:35.752Z,96535.72
2023-03-08T01:54:09.007Z,96540.91
2023-03-08T01:56:39.102Z,96532.59
2023-03-08T01:59:13.024Z,96532.50
2023-03-08T02:01:42.637Z,96533.53
2023-03-08T02:04:12.718Z,96521.34
2023-03-08T02:06:41.144Z,96534.81
2023-03-08T02:09:10.002Z,96537.28
2023-03-08T02:11:42.008Z,96533.19
2023-03-08T02:14:12.395Z,96531.63
2023-03-08T02:16:40.850Z,96524.91
2023-03-08T02:19:15.613Z,96523.31
2023-03-08T02:21:43.810Z,96520.66
2023-03-08T02:24:22.345Z,96512.44
2023-03-08T02:26:52.853Z,96517.59
2023-03-08T02:29:21.483Z,96512.53
2023-03-08T02:31:49.822Z,96516.19
2023-03-08T02:34:18.223Z,96518.56
2023-03-08T02:36:46.814Z,96526.13
2023-03-08T02:39:15.730Z,96515.00
2023-03-08T02:41:45.464Z,96513.72
2023-03-08T02:44:14.292Z,96507.13
2023-03-08T02:46:42.687Z,96508.03
2023-03-08T02:49:11.392Z,96513.81
2023-03-08T02:51:40.157Z,96509.59
2023-03-08T02:54:08.555Z,96514.88
2023-03-08T02:56:37.612Z,96499.91
2023-03-08T02:59:07.632Z,96520.16
2023-03-08T03:01:36.160Z,96521.91
2023-03-08T03:04:04.723Z,96512.91
2023-03-08T03:06:34.827Z,96517.69
2023-03-08T03:09:03.444Z,96519.34
2023-03-08T03:11:32.001Z,96522.03
2023-03-08T03:14:01.944Z,96511.94
2023-03-08T03:16:32.155Z,96514.50
2023-03-08T03:19:01.258Z,96504.47
2023-03-08T03:21:30.663Z,96495.31
2023-03-08T03:23:59.458Z,96505.56
2023-03-08T03:26:28.758Z,96507.53
2023-03-08T03:28:58.145Z,96500.78
2023-03-08T03:31:27.567Z,96505.16
2023-03-08T03:33:57.669Z,96501.84
2023-03-08T03:36:26.496Z,96489.28
2023-03-08T03:38:55.409Z,96481.03
2023-03-08T03:41:25.114Z,96488.97
2023-03-08T03:43:54.394Z,96490.19
2023-03-08T03:46:23.567Z,96498.91
2023-03-08T03:48:52.199Z,96497.50
2023-03-08T03:51:24.106Z,96504.50
2023-03-08T03:53:52.581Z,96499.81
2023-03-08T03:56:23.402Z,96503.22
2023-03-08T03:58:52.912Z,96498.28
2023-03-08T04:01:23.240Z,96498.38
2023-03-08T04:03:52.846Z,96497.59
2023-03-08T04:06:24.423Z,96494.38
2023-03-08T04:08:54.731Z,96490.97
2023-03-08T04:11:26.271Z,96489.25
2023-03-08T04:13:55.163Z,96490.09
2023-03-08T04:16:26.783Z,96486.63
2023-03-08T04:18:58.688Z,96488.34
2023-03-08T04:21:29.728Z,96489.88
2023-03-08T04:24:00.604Z,96490.66
2023-03-08T04:26:29.723Z,96489.56
2023-03-08T04:28:58.678Z,96482.00
2023-03-08T04:31:29.307Z,96493.09
2023-03-08T04:33:58.721Z,96482.94
2023-03-08T04:36:29.046Z,96473.69
2023-03-08T04:38:57.526Z,96472.91
2023-03-08T04:41:26.129Z,96460.16
2023-03-08T04:43:56.643Z,96454.06
2023-03-08T04:46:26.955Z,96459.94
2023-03-08T04:48:56.533Z,96456.56
2023-03-08T04:51:26.604Z,96449.03
2023-03-08T04:53:56.720Z,96442.28
2023-03-08T04:56:25.171Z,96437.28
2023-03-08T04:58:53.545Z,96439.75
2023-03-08T05:01:23.879Z,96438.06
2023-03-08T05:03:53.423Z,96423.66
2023-03-08T05:06:23.918Z,96439.59
2023-03-08T05:08:52.388Z,96432.91
2023-03-08T05:11:24.229Z,96434.53
2023-03-08T05:13:54.747Z,96426.91
2023-03-08T05:16:24.359Z,96425.25
2023-03-08T05:18:52.963Z,96421.13
2023-03-08T05:21:23.277Z,96408.38
2023-03-08T05:23:51.926Z,96400.00
2023-03-08T05:26:22.251Z,96410.09
2023-03-08T05:28:50.576Z,96412.56
2023-03-08T05:31:20.940Z,96393.41
2023-03-08T05:33:51.245Z,96406.72
2023-03-08T05:36:20.942Z,96391.66
2023-03-08T05:38:49.381Z,96404.22
2023-03-08T05:41:18.586Z,96400.00
2023-03-08T05:43:48.340Z,96395.63
2023-03-08T05:46:19.249Z,96403.19
2023-03-08T05:48:48.273Z,96393.69
2023-03-08T05:51:18.772Z,96399.47
2023-03-08T05:53:47.408Z,96407.78
2023-03-08T05:56:18.051Z,96406.13
2023-03-08T05:58:48.544Z,96403.53
2023-03-08T06:01:19.232Z,96380.81
2023-03-08T06:03:49.246Z,96397.56
2023-03-08T06:06:18.380Z,96400.75
2023-03-08T06:08:46.907Z,96402.59
2023-03-08T06:11:16.053Z,96419.97
2023-03-08T06:13:44.861Z,96423.34
2023-03-08T06:16:15.038Z,96424.16
2023-03-08T06:18:44.640Z,96426.81
2023-03-08T06:21:15.538Z,96436.78
2023-03-08T06:23:45.611Z,96435.91
2023-03-08T06:26:16.242Z,96423.16
2023-03-08T06:28:45.046Z,96423.84
2023-03-08T06:31:16.991Z,96423.06
2023-03-08T06:33:45.871Z,96415.19
2023-03-08T06:36:16.685Z,96401.94
2023-03-08T06:38:45.086Z,96396.91
2023-03-08T06:41:15.511Z,96409.50
2023-03-08T06:43:44.757Z,96380.03
2023-03-08T06:46:18.650Z,96399.97
2023-03-08T06:48:48.376Z,96415.28
2023-03-08T06:51:17.174Z,96405.88
2023-03-08T06:53:45.465Z,96402.44
2023-03-08T06:56:16.184Z,96397.22
2023-03-08T06:58:44.463Z,96402.28
2023-03-08T07:01:14.387Z,96397.31
2023-03-08T07:03:45.591Z,96412.53
2023-03-08T07:06:14.312Z,96409.09
2023-03-08T07:08:43.768Z,96402.94
2023-03-08T07:11:12.861Z,96402.84
2023-03-08T07:13:41.679Z,96389.47
2023-03-08T07:16:11.537Z,96399.44
2023-03-08T07:18:40.332Z,96406.06
2023-03-08T07:21:11.407Z,96396.69
2023-03-08T07:23:39.970Z,96397.56
2023-03-08T07:26:09.326Z,96401.66
2023-03-08T07:28:38.728Z,96394.81
2023-03-08T07:31:07.574Z,96393.09
2023-03-08T07:33:36.411Z,96382.09
2023-03-08T07:36:05.116Z,96388.53
2023-03-08T07:38:35.204Z,96387.03
2023-03-08T07:41:04.994Z,96400.47
2023-03-08T07:43:33.340Z,96390.47
2023-03-08T07:46:04.619Z,96392.13
2023-03-08T07:48:34.292Z,96380.97
2023-03-08T07:51:05.680Z,96393.31
2023-03-08T07:53:36.126Z,96379.22
2023-03-08T07:56:05.228Z,96381.66
2023-03-08T07:58:34.496Z,96399.91
2023-03-08T08:01:03.021Z,96399.03
2023-03-08T08:03:31.396Z,96393.09
2023-03-08T08:06:04.185Z,96402.22
2023-03-08T08:08:32.801Z,96398.84
2023-03-08T08:11:03.605Z,96400.50
2023-03-08T08:13:31.891Z,96380.31
2023-03-08T08:16:01.864Z,96393.72
2023-03-08T08:18:30.490Z,96385.19
2023-03-08T08:21:03.826Z,96386.59
2023-03-08T08:23:33.208Z,96379.19
2023-03-08T08:26:07.460Z,96383.69
2023-03-08T08:28:37.422Z,96370.22
2023-03-08T08:31:08.040Z,96355.50
2023-03-08T08:33:37.470Z,96331.19
2023-03-08T08:36:08.432Z,96327.16
2023-03-08T08:38:37.630Z,96337.16
2023-03-08T08:41:10.138Z,96331.50
2023-03-08T08:43:38.679Z,96327.22
2023-03-08T08:46:07.632Z,96321.16
2023-03-08T08:48:37.801Z,96316.19
2023-03-08T08:51:07.937Z,96325.22
2023-03-08T08:53:37.636Z,96312.88
2023-03-08T08:56:26.260Z,96306.53
2023-03-08T08:58:56.467Z,96292.84
2023-03-08T09:01:27.831Z,96279.84
2023-03-08T09:03:57.870Z,96272.00
2023-03-08T09:06:27.871Z,96275.13
2023-03-08T09:08:57.897Z,96290.53
2023-03-08T09:11:29.496Z,96278.56
2023-03-08T09:13:58.323Z,96278.34
2023-03-08T09:16:28.594Z,96267.50
2023-03-08T09:18:58.912Z,96264.00
2023-03-08T09:21:30.705Z,96246.75
2023-03-08T09:24:02.507Z,96247.03
2023-03-08T09:26:34.845Z,96239.41
2023-03-08T09:29:05.729Z,96236.25
2023-03-08T09:31:35.587Z,96214.25
2023-03-08T09:34:09.664Z,96218.78
2023-03-08T09:36:40.057Z,96215.28
2023-03-08T09:39:09.129Z,96217.13
2023-03-08T09:41:58.912Z,96213.78
2023-03-08T09:45:00.974Z,96198.63
2023-03-08T09:47:41.398Z,96189.75
2023-03-08T09:50:32.909Z,96176.56
2023-03-08T09:53:07.858Z,96179.25
2023-03-08T09:55:39.799Z,96167.50
2023-03-08T09:58:26.426Z,96160.72
2023-03-08T10:00:57.129Z,96150.72
2023-03-08T10:03:55.851Z,96144.97
2023-03-08T10:06:34.542Z,96144.28
2023-03-08T10:09:09.319Z,96136.75
2023-03-08T10:11:45.524Z,96113.56
2023-03-08T10:14:20.759Z,96109.47
2023-03-08T10:16:53.967Z,96110.84
2023-03-08T10:19:25.987Z,96117.41
2023-03-08T10:21:56.483Z,96115.56
2023-03-08T10:24:30.452Z,96122.38
2023-03-08T10:27:04.963Z,96119.19
2023-03-08T10:29:34.851Z,96110.75
2023-03-08T10:32:05.541Z,96102.00
2023-03-08T10:34:35.944Z,96096.94
2023-03-08T10:37:07.011Z,96100.22
2023-03-08T10:39:37.238Z,96098.38
2023-03-08T10:42:15.630Z,96096.63
2023-03-08T10:44:54.181Z,96096.66
2023-03-08T10:47:25.169Z,96100.59
2023-03-08T10:50:15.792Z,96094.72
2023-03-08T10:52:45.534Z,96089.59
2023-03-08T10:55:16.552Z,96080.28
2023-03-08T10:57:51.745Z,96090.00
2023-03-08T11:00:33.668Z,96076.66
2023-03-08T11:03:15.269Z,96073.59
2023-03-08T11:05:54.352Z,96076.28
2023-03-08T11:08:28.770Z,96071.63
2023-03-08T11:11:05.934Z,96074.47
2023-03-08T11:13:36.795Z,96074.72
2023-03-08T11:16:48.870Z,96073.13
2023-03-08T11:19:33.053Z,96067.56
2023-03-08T11:22:11.887Z,96064.66
2023-03-08T11:24:54.210Z,96050.28
2023-03-08T11:27:37.033Z,96062.81
2023-03-08T11:30:21.477Z,96059.13
2023-03-08T11:33:09.477Z,96049.47
2023-03-08T11:35:45.219Z,96051.03
2023-03-08T11:38:20.111Z,96051.03
2023-03-08T11:41:00.969Z,96053.53
2023-03-08T11:43:44.776Z,96048.91
2023-03-08T11:46:22.606Z,96038.88
2023-03-08T11:49:18.157Z,96033.88
2023-03-08T11:51:54.654Z,96027.94
2023-03-08T11:54:37.155Z,96021.66
2023-03-08T11:57:11.254Z,96021.75
2023-03-08T11:59:44.543Z,96020.31
2023-03-08T12:02:19.173Z,96012.59
2023-03-08T12:04:58.906Z,96011.03
2023-03-08T12:07:33.151Z,96012.06
2023-03-08T12:10:06.537Z,95982.34
2023-03-08T12:12:41.012Z,95989.34
2023-03-08T12:15:27.871Z,95983.19
2023-03-08T12:18:02.228Z,95986.44
2023-03-08T12:20:40.221Z,95968.56
2023-03-08T12:23:22.753Z,95953.50
2023-03-08T12:25:54.897Z,95957.41
2023-03-08T12:28:30.684Z,95967.38
2023-03-08T12:31:29.389Z,95949.16
2023-03-08T12:33:59.980Z,95950.69
2023-03-08T12:36:46.229Z,95963.03
2023-03-08T12:39:32.632Z,95941.34
2023-03-08T12:42:04.213Z,95931.06
2023-03-08T12:44:33.244Z,95933.78
2023-03-08T12:47:04.662Z,95957.28
2023-03-08T12:49:36.383Z,95935.84
2023-03-08T12:52:25.109Z,95927.19
2023-03-08T12:54:59.398Z,95929.56
2023-03-08T12:57:31.865Z,95905.13
2023-03-08T13:00:07.128Z,95900.56
2023-03-08T13:02:37.332Z,95914.63
2023-03-08T13:05:19.745Z,95918.69
2023-03-08T13:08:18.941Z,95914.09
2023-03-08T13:11:01.617Z,95920.63
2023-03-08T13:13:42.115Z,95910.09
2023-03-08T13:16:31.646Z,95886.88
2023-03-08T13:19:18.725Z,95917.63
2023-03-08T13:21:52.173Z,95923.13
2023-03-08T13:24:37.330Z,95898.63
2023-03-08T13:27:20.468Z,95893.16
2023-03-08T13:29:50.141Z,95899.59
2023-03-08T13:32:20.575Z,95900.19
2023-03-08T13:35:02.350Z,95882.78
2023-03-08T13:37:32.638Z,95888.75
2023-03-08T13:40:08.324Z,95880.34
2023-03-08T13:42:37.622Z,95871.63
2023-03-08T13:45:11.801Z,95897.69
2023-03-08T13:47:42.751Z,95885.78
2023-03-08T13:50:20.711Z,95882.03
2023-03-08T13:52:50.105Z,95869.84
2023-03-08T13:55:24.767Z,95869.56
2023-03-08T13:57:55.758Z,95873.72
2023-03-08T14:00:32.179Z,95870.13
2023-03-08T14:03:02.541Z,95867.34
2023-03-08T14:05:32.899Z,95870.53
2023-03-08T14:08:03.331Z,95864.78
2023-03-08T14:10:39.654Z,95864.16
2023-03-08T14:13:16.175Z,95860.47
2023-03-08T14:15:51.193Z,95861.28
2023-03-08T14:18:23.776Z,95865.59
2023-03-08T14:21:07.804Z,95859.44
2023-03-08T14:23:42.067Z,95855.38
2023-03-08T14:29:22.547Z,95840.88
2023-03-08T14:31:58.075Z,95835.78
2023-03-08T14:34:30.061Z,95837.03
2023-03-08T14:37:01.207Z,95822.44
2023-03-08T14:39:31.978Z,95831.41
2023-03-08T14:42:10.212Z,95823.50
2023-03-08T14:44:40.933Z,95815.41
2023-03-08T14:47:11.858Z,95823.97
2023-03-08T14:49:40.731Z,95821.38
2023-03-08T14:52:21.471Z,95802.75
2023-03-08T14:54:51.128Z,95817.44
2023-03-08T14:57:21.720Z,95819.84
2023-03-08T14:59:53.015Z,95816.66
2023-03-08T15:02:21.598Z,95817.16
2023-03-08T15:04:49.974Z,95803.50
2023-03-08T15:07:22.327Z,95813.00
2023-03-08T15:09:53.188Z,95813.75
2023-03-08T15:12:22.032Z,95814.38
2023-03-08T15:14:53.470Z,95805.56
2023-03-08T15:17:22.818Z,95806.34
2023-03-08T15:19:52.146Z,95812.13
2023-03-08T15:22:21.164Z,95806.88
2023-03-08T15:24:51.168Z,95799.22
2023-03-08T15:27:19.849Z,95797.69
2023-03-08T15:29:49.463Z,95799.13
2023-03-08T15:32:19.924Z,95791.47
2023-03-08T15:34:48.365Z,95810.25
2023-03-08T15:37:18.625Z,95826.41
2023-03-08T15:39:47.294Z,95823.09
2023-03-08T15:42:15.898Z,95839.31
2023-03-08T15:44:44.454Z,95847.13
2023-03-08T15:47:12.914Z,95832.94
2023-03-08T15:49:43.369Z,95837.94
2023-03-08T15:52:16.175Z,95828.25
2023-03-08T15:54:47.638Z,95841.47
2023-03-08T15:57:16.178Z,95846.84
2023-03-08T15:59:44.861Z,95851.94
2023-03-08T16:02:16.452Z,95814.66
2023-03-08T16:04:48.179Z,95826.72
2023-03-08T16:07:19.373Z,95830.31
2023-03-08T16:09:48.796Z,95826.69
2023-03-08T16:12:17.423Z,95828.31
2023-03-08T16:14:49.489Z,95819.59
2023-03-08T16:17:19.089Z,95822.09
2023-03-08T16:19:49.162Z,95823.97
2023-03-08T16:22:17.516Z,95817.28
2023-03-08T16:24:46.497Z,95801.88
2023-03-08T16:27:15.132Z,95791.63
2023-03-08T16:29:44.384Z,95807.28
2023-03-08T16:32:15.739Z,95792.25
2023-03-08T16:34:44.611Z,95787.13
2023-03-08T16:37:14.656Z,95787.56
2023-03-08T16:39:42.998Z,95782.44
2023-03-08T16:42:13.085Z,95785.00
2023-03-08T16:44:42.184Z,95788.16
2023-03-08T16:47:10.493Z,95788.47
2023-03-08T16:49:39.078Z,95802.00
2023-03-08T16:52:07.800Z,95792.75
2023-03-08T16:54:37.717Z,95804.94
2023-03-08T16:57:18.143Z,95821.19
2023-03-08T16:59:49.044Z,95805.19
2023-03-08T17:02:19.163Z,95799.16
2023-03-08T17:04:48.733Z,95818.59
2023-03-08T17:07:17.507Z,95804.72
2023-03-08T17:09:47.230Z,95789.44
2023-03-08T17:12:15.916Z,95817.16
2023-03-08T17:14:45.435Z,95813.00
2023-03-08T17:17:13.955Z,95804.94
2023-03-08T17:19:42.638Z,95804.22
2023-03-08T17:22:11.281Z,95810.72
2023-03-08T17:24:39.553Z,95804.13
2023-03-08T17:27:09.881Z,95799.25
2023-03-08T17:29:38.499Z,95807.97
2023-03-08T17:32:08.289Z,95803.06
2023-03-08T17:34:37.984Z,95813.97
2023-03-08T17:37:11.416Z,95812.56
2023-03-08T17:39:40.108Z,95818.00
2023-03-08T17:42:11.050Z,95813.84
2023-03-08T17:44:39.901Z,95816.50
2023-03-08T17:47:08.578Z,95818.97
2023-03-08T17:49:39.872Z,95818.28
2023-03-08T17:52:09.906Z,95818.34
2023-03-08T17:54:39.006Z,95814.09
2023-03-08T17:57:07.878Z,95814.28
2023-03-08T17:59:37.513Z,95803.41
2023-03-08T18:02:06.128Z,95804.38
2023-03-08T18:04:34.508Z,95800.84
2023-03-08T18:07:03.241Z,95802.56
2023-03-08T18:09:32.898Z,95793.69
2023-03-08T18:12:02.713Z,95788.38
2023-03-08T18:14:39.446Z,95790.75
2023-03-08T18:17:10.345Z,95785.84
2023-03-08T18:19:38.755Z,95788.88
2023-03-08T18:22:08.018Z,95799.81
2023-03-08T18:24:36.709Z,95792.09
2023-03-08T18:27:06.877Z,95809.09
2023-03-08T18:29:36.683Z,95800.50
2023-03-08T18:32:05.933Z,95797.72
2023-03-08T18:34:36.163Z,95797.63
2023-03-08T18:37:04.547Z,95795.81
2023-03-08T18:39:33.037Z,95778.06
2023-03-08T18:42:02.605Z,95779.00
2023-03-08T18:44:31.261Z,95782.78
2023-03-08T18:47:00.459Z,95780.22
2023-03-08T18:49:28.816Z,95784.41
2023-03-08T18:51:59.349Z,95789.53
2023-03-08T18:54:28.410Z,95788.03
2023-03-08T18:56:58.979Z,95789.53
2023-03-08T18:59:29.149Z,95786.81
2023-03-08T19:01:57.818Z,95785.75
2023-03-08T19:04:26.492Z,95782.22
2023-03-08T19:06:54.992Z,95796.50
2023-03-08T19:09:25.005Z,95788.00
2023-03-08T19:11:53.818Z,95785.28
2023-03-08T19:14:22.947Z,95772.09
2023-03-08T19:16:51.521Z,95785.81
2023-03-08T19:19:20.307Z,95782.94
2023-03-08T19:21:50.120Z,95792.44
2023-03-08T19:24:20.329Z,95781.22
2023-03-08T19:26:53.529Z,95747.78
2023-03-08T19:29:25.235Z,95776.19
2023-03-08T19:31:55.856Z,95767.09
2023-03-08T19:34:28.739Z,95767.84
2023-03-08T19:36:57.713Z,95766.94
2023-03-08T19:39:27.639Z,95762.72
2023-03-08T19:42:00.448Z,95761.41
2023-03-08T19:44:30.343Z,95755.53
2023-03-08T19:46:59.841Z,95756.59
2023-03-08T19:49:30.691Z,95751.47
2023-03-08T19:52:01.565Z,95752.38
2023-03-08T19:54:30.987Z,95749.06
2023-03-08T19:57:01.764Z,95749.06
2023-03-08T19:59:30.211Z,95737.19
2023-03-08T20:02:01.500Z,95760.44
2023-03-08T20:04:31.225Z,95762.91
2023-03-08T20:07:02.968Z,95778.28
